Hauptseite
METAR-TAF:

METAR-TAF

Flughäfen :

Flughafen Kuwait

Kuwait-Stadt, Kuwait

Breite: 29-13N, Länge: 047-59E, Höhe: 55 m

Beobachtung

Neuester Wetterbericht von vor 49 Minuten, um 04:00 UTC
Wind 4 kt aus Süd
Temperatur 7°C
Luftfeuchtigkeit 93%
Luftdruck 1022 hPa
Sichtweite 10 km oder mehr
keine Wolken unter 1500 m und keine Kumulonimbus oder Gewitterwolken

METAR: OKBK 210400Z 19004KT CAVOK 07/06 Q1022 NOSIG

Zeit: 07:49 (04:49 UTC)

Prognose

Neuester Wetterbericht von vor 6 Stunden und 4 Minuten, um 22:45 UTC
Gültige Prognose vom 21 um 00 UTC bis 22 um 06 UTC
Wind 8 kt aus Nord/Nordwest
Sichtweite: 7000 m
Himmel klar

TAF: OKBK 202245Z 2100/2206 34008KT 7000 SKC

Wetterbeobachtungen und Prognosen von mehr als 4000 Flughäfen (METAR und TAF Bericht).

Die verfügbaren Stationen werden durch gelbe und rote Markierungen auf der Karte dargestellt.

Führen Sie die Maus auf sie, um den Namen der Station zu sehen.

Darauf klicken, um die Beobachtung von Wetterbeobachtungen und Prognosen zu sehen.

Um die Karte zu ändern : klicken Sie auf den grünen Tasten mit einem schwarzen Kreuz Zum Vergrößern, auf den grünen Button mit einem Gedankenstrich zu verkleinern, oder auf die grünen Pfeile für benachbarte Karten.


METAR-TAF: